createdAt,value
2023-05-10T00:01:15.476Z,25.02
2023-05-10T00:03:42.685Z,26.23
2023-05-10T00:06:10.127Z,27.40
2023-05-10T00:08:37.695Z,27.35
2023-05-10T00:11:04.951Z,27.88
2023-05-10T00:13:32.506Z,28.75
2023-05-10T00:15:59.538Z,29.45
2023-05-10T00:18:26.747Z,32.22
2023-05-10T00:20:53.573Z,35.17
2023-05-10T00:23:20.571Z,32.50
2023-05-10T00:25:47.781Z,32.70
2023-05-10T00:28:14.688Z,34.15
2023-05-10T00:30:41.599Z,31.70
2023-05-10T00:33:09.140Z,32.83
2023-05-10T00:35:36.312Z,33.78
2023-05-10T00:38:03.199Z,33.10
2023-05-10T00:40:31.507Z,28.13
2023-05-10T00:43:04.027Z,27.42
2023-05-10T00:45:35.221Z,29.15
2023-05-10T00:48:03.349Z,26.83
2023-05-10T00:50:32.249Z,26.77
2023-05-10T00:53:00.612Z,26.83
2023-05-10T00:55:28.042Z,24.95
2023-05-10T00:57:55.390Z,26.73
2023-05-10T01:00:22.902Z,26.40
2023-05-10T01:02:51.627Z,29.67
2023-05-10T01:05:22.197Z,27.50
2023-05-10T01:07:49.331Z,26.05
2023-05-10T01:10:17.173Z,29.02
2023-05-10T01:12:45.189Z,29.83
2023-05-10T01:15:12.235Z,31.33
2023-05-10T01:17:40.853Z,33.13
2023-05-10T01:20:09.750Z,34.70
2023-05-10T01:22:57.942Z,34.67
2023-05-10T01:25:34.737Z,37.95
2023-05-10T01:28:05.092Z,36.47
2023-05-10T01:30:34.971Z,39.03
2023-05-10T01:33:20.725Z,41.35
2023-05-10T01:36:03.030Z,41.22
2023-05-10T01:38:39.090Z,39.00
2023-05-10T01:41:05.935Z,39.70
2023-05-10T01:43:35.413Z,42.85
2023-05-10T01:46:11.352Z,44.13
2023-05-10T01:48:47.326Z,42.50
2023-05-10T01:51:16.651Z,38.70
2023-05-10T01:53:46.433Z,39.85
2023-05-10T01:56:15.525Z,40.75
2023-05-10T01:58:44.531Z,42.15
2023-05-10T02:01:12.756Z,36.42
2023-05-10T02:03:42.510Z,38.63
2023-05-10T02:06:11.444Z,41.42
2023-05-10T02:08:39.972Z,46.90
2023-05-10T02:11:07.152Z,44.08
2023-05-10T02:13:35.811Z,45.63
2023-05-10T02:16:04.315Z,47.80
2023-05-10T02:18:32.897Z,47.67
2023-05-10T02:21:01.461Z,49.28
2023-05-10T02:23:30.245Z,56.70
2023-05-10T02:26:00.283Z,56.83
2023-05-10T02:28:49.804Z,49.45
2023-05-10T02:31:16.998Z,48.45
2023-05-10T02:33:44.957Z,48.83
2023-05-10T02:39:03.241Z,49.85
2023-05-10T02:41:32.517Z,53.30
2023-05-10T02:44:03.964Z,46.97
2023-05-10T02:49:54.558Z,36.17
2023-05-10T02:53:08.263Z,30.73
2023-05-10T02:56:01.358Z,28.92
2023-05-10T03:04:34.983Z,30.38
2023-05-10T03:10:05.771Z,28.50
2023-05-10T03:13:27.938Z,29.02
2023-05-10T03:23:23.346Z,31.17
2023-05-10T03:52:13.271Z,22.73
2023-05-10T03:55:25.809Z,20.73
2023-05-10T03:57:56.065Z,16.67
2023-05-10T04:00:24.719Z,16.10
2023-05-10T04:02:58.259Z,15.63
2023-05-10T04:05:27.828Z,16.38
2023-05-10T04:10:46.712Z,14.95
2023-05-10T04:13:20.981Z,13.50
2023-05-10T04:15:48.880Z,15.48
2023-05-10T04:18:26.435Z,14.32
2023-05-10T04:21:02.295Z,16.10
2023-05-10T04:23:43.402Z,16.83
2023-05-10T04:26:15.992Z,16.98
2023-05-10T04:29:23.888Z,16.73
2023-05-10T04:37:51.723Z,15.77
2023-05-10T04:41:15.594Z,14.48
2023-05-10T07:52:18.643Z,13.13
2023-05-10T07:57:31.805Z,10.85
2023-05-10T07:59:59.120Z,11.02
2023-05-10T08:02:26.323Z,11.55
2023-05-10T08:04:54.066Z,12.93
2023-05-10T08:07:20.912Z,12.45
2023-05-10T08:09:47.983Z,14.05
2023-05-10T08:15:06.641Z,9.05
2023-05-10T08:17:33.692Z,8.23
2023-05-10T08:20:00.625Z,7.18
2023-05-10T08:22:27.870Z,7.55
2023-05-10T08:24:54.644Z,7.97
2023-05-10T08:27:22.021Z,8.45
2023-05-10T08:29:50.724Z,7.93
2023-05-10T08:32:18.170Z,10.68
2023-05-10T08:34:44.887Z,9.40
2023-05-10T08:37:14.387Z,7.88
2023-05-10T08:39:41.804Z,8.02
2023-05-10T08:42:09.417Z,8.27
2023-05-10T08:44:37.731Z,6.13
2023-05-10T08:47:08.708Z,7.68
2023-05-10T08:49:36.334Z,9.32
2023-05-10T08:52:05.865Z,10.23
2023-05-10T08:54:33.623Z,10.05
2023-05-10T08:57:00.891Z,8.25
2023-05-10T08:59:31.184Z,8.50
2023-05-10T09:02:31.124Z,8.35
2023-05-10T09:04:58.771Z,8.68
2023-05-10T09:07:25.985Z,9.35
2023-05-10T09:10:00.354Z,7.50
2023-05-10T09:12:29.863Z,6.10
2023-05-10T09:15:54.417Z,6.32
2023-05-10T09:18:21.765Z,6.35
2023-05-10T09:20:53.192Z,5.93
2023-05-10T09:23:20.406Z,6.00
2023-05-10T09:25:47.439Z,7.72
2023-05-10T09:28:14.280Z,7.68
2023-05-10T09:30:41.521Z,8.60
2023-05-10T09:33:08.967Z,7.05
2023-05-10T09:35:37.206Z,6.20
2023-05-10T09:38:05.444Z,6.07
2023-05-10T09:40:33.417Z,5.60
2023-05-10T09:43:02.232Z,4.65
2023-05-10T09:45:37.028Z,4.47
2023-05-10T09:51:02.077Z,3.90
2023-05-10T09:53:31.736Z,4.28
2023-05-10T09:56:06.895Z,4.55
2023-05-10T09:58:37.965Z,4.35
2023-05-10T10:01:04.947Z,5.75
2023-05-10T10:03:33.529Z,5.35
2023-05-10T10:06:00.285Z,5.30
2023-05-10T10:12:03.833Z,5.37
2023-05-10T10:15:12.499Z,5.07
2023-05-10T10:17:52.522Z,4.70
2023-05-10T10:24:17.840Z,5.40
2023-05-10T10:26:50.057Z,4.95
2023-05-10T10:30:35.671Z,5.15
2023-05-10T10:33:28.550Z,4.18
2023-05-10T10:39:12.363Z,4.65
2023-05-10T10:42:07.159Z,4.45
2023-05-10T10:44:42.271Z,4.82
2023-05-10T10:47:25.723Z,4.47
2023-05-10T10:50:06.804Z,5.20
2023-05-10T10:52:43.310Z,4.20
2023-05-10T10:56:21.414Z,4.70
2023-05-10T10:59:42.394Z,4.57
2023-05-10T11:02:45.214Z,3.83
2023-05-10T11:06:16.000Z,4.00
2023-05-10T11:09:36.336Z,5.32
2023-05-10T11:15:39.171Z,5.93
2023-05-10T11:19:02.006Z,4.97
2023-05-10T11:22:07.054Z,4.53
2023-05-10T11:24:55.282Z,4.38
2023-05-10T11:27:45.187Z,4.88
2023-05-10T11:30:52.478Z,4.30
2023-05-10T11:33:32.404Z,4.50
2023-05-10T11:39:44.444Z,4.45
2023-05-10T11:43:09.907Z,4.68
2023-05-10T11:45:43.705Z,3.58
2023-05-10T11:48:14.435Z,3.50
2023-05-10T11:50:53.949Z,4.15
2023-05-10T11:53:21.515Z,4.00
2023-05-10T13:07:07.259Z,3.40
2023-05-10T13:09:36.190Z,2.67
2023-05-10T13:12:10.366Z,3.70
2023-05-10T13:15:04.280Z,3.13
2023-05-10T13:17:34.299Z,3.20
2023-05-10T13:20:04.538Z,6.78
2023-05-10T13:22:40.614Z,9.20
2023-05-10T13:25:49.923Z,5.32
2023-05-10T13:28:20.317Z,4.03
2023-05-10T13:30:55.303Z,7.82
2023-05-10T13:33:28.713Z,5.63
2023-05-10T13:39:06.976Z,3.10
2023-05-10T13:41:51.357Z,3.40
2023-05-10T13:44:22.546Z,4.75
2023-05-10T13:46:56.327Z,3.47
2023-05-10T13:49:24.504Z,3.17
2023-05-10T13:54:36.949Z,3.53
2023-05-10T13:57:13.116Z,3.50
2023-05-10T13:59:43.906Z,3.42
2023-05-10T14:02:17.461Z,3.60
2023-05-10T14:07:15.655Z,3.90
2023-05-10T14:09:43.383Z,3.63
2023-05-10T14:12:13.907Z,4.15
2023-05-10T14:14:44.800Z,3.53
2023-05-10T14:21:02.349Z,3.50
2023-05-10T14:23:38.029Z,4.15
2023-05-10T14:26:11.407Z,4.15
2023-05-10T14:28:39.120Z,3.47
2023-05-10T14:31:06.925Z,3.13
2023-05-10T14:33:34.163Z,3.63
2023-05-10T14:36:02.470Z,3.30
2023-05-10T14:39:11.212Z,3.10
2023-05-10T14:43:37.086Z,3.28
2023-05-10T14:46:30.554Z,3.65
2023-05-10T14:48:58.253Z,3.47
2023-05-10T14:51:26.449Z,3.17
2023-05-10T14:54:01.482Z,2.97
2023-05-10T14:56:28.923Z,3.28
2023-05-10T14:59:00.824Z,2.50
2023-05-10T15:04:23.678Z,3.70
2023-05-10T15:06:54.588Z,3.60
2023-05-10T15:09:22.470Z,3.80
2023-05-10T15:11:51.523Z,3.78
2023-05-10T15:14:24.479Z,3.15
2023-05-10T15:16:52.018Z,2.67
2023-05-10T15:19:21.288Z,3.40
2023-05-10T15:22:10.181Z,3.03
2023-05-10T15:24:57.879Z,2.72
2023-05-10T15:27:25.581Z,3.45
2023-05-10T15:29:53.796Z,2.53
2023-05-10T15:32:22.401Z,2.80
2023-05-10T15:38:40.501Z,2.92
2023-05-10T15:43:41.966Z,3.47
2023-05-10T15:46:09.557Z,3.28
2023-05-10T15:48:41.141Z,3.40
2023-05-10T15:52:09.551Z,3.55
2023-05-10T15:54:37.751Z,4.00
2023-05-10T16:01:18.258Z,3.92
2023-05-10T16:05:16.237Z,3.85
2023-05-10T16:08:50.892Z,4.05
2023-05-10T16:11:44.042Z,3.95
2023-05-10T16:15:26.442Z,4.00
2023-05-10T16:18:26.879Z,4.40
2023-05-10T16:21:01.178Z,3.78
2023-05-10T16:23:29.346Z,4.82
2023-05-10T16:26:25.063Z,4.18
2023-05-10T16:29:14.598Z,3.45
2023-05-10T16:32:35.015Z,5.15
2023-05-10T16:38:49.483Z,3.83
2023-05-10T16:45:08.541Z,3.70
2023-05-10T16:51:30.275Z,4.80
2023-05-10T16:54:03.761Z,4.90
2023-05-10T16:56:56.297Z,4.45
2023-05-10T17:07:51.685Z,4.45
2023-05-10T17:11:19.775Z,4.15
2023-05-10T17:18:27.947Z,4.70
2023-05-10T17:21:38.280Z,4.10
2023-05-10T17:29:05.069Z,4.38
2023-05-10T17:31:36.119Z,4.25
2023-05-10T17:34:05.386Z,3.83
2023-05-10T17:36:41.215Z,4.00
2023-05-10T17:39:09.016Z,3.88
2023-05-10T17:41:36.804Z,4.18
2023-05-10T17:44:07.444Z,3.92
2023-05-10T17:46:38.246Z,5.47
2023-05-10T17:49:05.282Z,3.75
2023-05-10T17:51:34.662Z,3.63
2023-05-10T17:54:07.477Z,4.40
2023-05-10T17:56:41.484Z,3.75
2023-05-10T17:59:20.607Z,5.80
2023-05-10T18:01:51.143Z,6.68
2023-05-10T18:04:41.018Z,5.32
2023-05-10T18:07:30.584Z,4.45
2023-05-10T18:09:58.332Z,5.20
2023-05-10T18:12:31.885Z,5.38
2023-05-10T18:15:02.301Z,4.80
2023-05-10T18:18:11.178Z,5.35
2023-05-10T18:20:41.828Z,4.78
2023-05-10T18:23:12.332Z,6.10
2023-05-10T18:25:42.922Z,5.10
2023-05-10T18:28:14.960Z,5.15
2023-05-10T18:30:58.362Z,5.55
2023-05-10T18:33:26.154Z,6.10
2023-05-10T18:35:53.907Z,5.07
2023-05-10T18:38:45.766Z,4.82
2023-05-10T18:43:58.081Z,6.05
2023-05-10T18:46:38.333Z,5.72
2023-05-10T18:49:11.749Z,5.22
2023-05-10T18:51:45.161Z,5.88
2023-05-10T18:54:34.768Z,6.70
2023-05-10T18:57:22.037Z,5.93
2023-05-10T18:59:52.222Z,10.00
2023-05-10T19:02:19.302Z,5.95
2023-05-10T19:04:47.080Z,5.43
2023-05-10T19:07:15.531Z,6.57
2023-05-10T19:09:43.906Z,5.25
2023-05-10T19:12:19.001Z,5.47
2023-05-10T19:14:47.752Z,6.40
2023-05-10T19:17:15.261Z,8.20
2023-05-10T19:19:49.028Z,5.22
2023-05-10T19:22:17.729Z,5.43
2023-05-10T19:25:06.438Z,4.70
2023-05-10T19:27:41.345Z,5.22
2023-05-10T19:30:09.908Z,5.28
2023-05-10T19:32:38.639Z,5.22
2023-05-10T19:35:13.737Z,5.90
2023-05-10T19:40:32.446Z,5.82
2023-05-10T19:43:29.173Z,5.55
2023-05-10T19:46:37.420Z,6.25
2023-05-10T19:49:24.359Z,6.53
2023-05-10T19:51:57.059Z,5.95
2023-05-10T19:54:25.280Z,13.35
2023-05-10T19:56:52.478Z,7.57
2023-05-10T19:59:20.219Z,6.75
2023-05-10T20:01:57.864Z,5.80
2023-05-10T20:07:13.062Z,7.30
2023-05-10T20:09:40.471Z,5.68
2023-05-10T20:12:10.053Z,5.80
2023-05-10T20:14:40.062Z,5.95
2023-05-10T20:17:07.753Z,6.07
2023-05-10T20:19:35.541Z,5.85
2023-05-10T20:22:08.812Z,6.40
2023-05-10T20:24:41.048Z,6.40
2023-05-10T20:27:21.879Z,6.25
2023-05-10T20:29:57.423Z,8.15
2023-05-10T20:32:34.339Z,7.10
2023-05-10T20:35:08.082Z,6.63
2023-05-10T20:37:51.028Z,7.38
2023-05-10T20:40:39.994Z,7.63
2023-05-10T20:43:33.195Z,7.30
2023-05-10T20:46:23.888Z,7.65
2023-05-10T20:52:32.986Z,8.00
2023-05-10T20:57:56.629Z,7.65
2023-05-10T21:03:08.382Z,8.20
2023-05-10T21:05:44.995Z,7.97
2023-05-10T21:11:11.431Z,8.25
2023-05-10T21:14:02.256Z,8.57
2023-05-10T21:19:59.005Z,8.30
2023-05-10T21:28:43.968Z,8.98
2023-05-10T21:31:21.493Z,8.32
2023-05-10T21:33:53.026Z,7.82
2023-05-10T21:36:22.260Z,8.18
2023-05-10T21:39:31.826Z,13.43
2023-05-10T21:45:25.423Z,10.52
2023-05-10T21:48:58.997Z,9.02
2023-05-10T21:51:35.801Z,8.95
2023-05-10T21:54:04.952Z,7.97
2023-05-10T21:56:37.977Z,9.27
2023-05-10T21:59:05.846Z,10.00
2023-05-10T22:01:49.839Z,9.02
2023-05-10T22:04:20.363Z,9.90
2023-05-10T22:06:53.104Z,8.68
2023-05-10T22:09:29.670Z,8.27
2023-05-10T22:12:22.213Z,9.07
2023-05-10T22:14:59.484Z,8.57
2023-05-10T22:17:44.485Z,9.27
2023-05-10T22:20:13.152Z,9.82
2023-05-10T22:22:51.006Z,8.82
2023-05-10T22:25:21.871Z,9.50
2023-05-10T22:27:52.960Z,8.93
2023-05-10T22:30:21.929Z,9.43
2023-05-10T22:37:04.172Z,9.65
2023-05-10T22:49:17.460Z,10.05
2023-05-10T22:54:50.776Z,9.35
2023-05-10T22:57:19.718Z,9.20
2023-05-10T22:59:53.910Z,10.02
2023-05-10T23:02:21.775Z,9.38
2023-05-10T23:04:49.931Z,9.15
2023-05-10T23:10:25.133Z,10.02
2023-05-10T23:12:52.885Z,9.95
2023-05-10T23:15:26.871Z,9.13
2023-05-10T23:18:05.911Z,9.02
2023-05-10T23:20:33.576Z,9.85
2023-05-10T23:23:05.290Z,9.75
2023-05-10T23:28:18.233Z,9.70
2023-05-10T23:39:52.942Z,11.18
2023-05-10T23:42:25.160Z,10.85
2023-05-10T23:47:38.965Z,11.48
2023-05-10T23:50:12.687Z,10.82
2023-05-10T23:52:53.153Z,10.98
2023-05-10T23:55:26.437Z,10.55
2023-05-10T23:57:57.376Z,10.25
